sensor_id;sensor_type;location;lat;lon;timestamp;temperature;humidity
61392;DHT22;47261;52.892;5.738;2022-11-20T00:01:24;0.10;92.20
61392;DHT22;47261;52.892;5.738;2022-11-20T00:03:52;0.20;92.40
61392;DHT22;47261;52.892;5.738;2022-11-20T00:06:19;0.20;92.60
61392;DHT22;47261;52.892;5.738;2022-11-20T00:08:45;0.20;92.80
61392;DHT22;47261;52.892;5.738;2022-11-20T00:11:16;0.30;93.00
61392;DHT22;47261;52.892;5.738;2022-11-20T00:13:46;0.30;93.00
61392;DHT22;47261;52.892;5.738;2022-11-20T00:16:15;0.30;93.00
61392;DHT22;47261;52.892;5.738;2022-11-20T00:18:40;0.30;92.90
61392;DHT22;47261;52.892;5.738;2022-11-20T00:21:11;0.30;92.80
61392;DHT22;47261;52.892;5.738;2022-11-20T00:23:38;0.30;92.50
61392;DHT22;47261;52.892;5.738;2022-11-20T00:26:05;0.20;92.50
61392;DHT22;47261;52.892;5.738;2022-11-20T00:28:31;0.20;92.60
61392;DHT22;47261;52.892;5.738;2022-11-20T00:31:07;0.20;92.60
61392;DHT22;47261;52.892;5.738;2022-11-20T00:33:33;0.30;92.70
61392;DHT22;47261;52.892;5.738;2022-11-20T00:36:04;0.30;92.60
61392;DHT22;47261;52.892;5.738;2022-11-20T00:38:31;0.30;92.60
61392;DHT22;47261;52.892;5.738;2022-11-20T00:40:58;0.40;92.50
61392;DHT22;47261;52.892;5.738;2022-11-20T00:43:25;0.40;92.50
61392;DHT22;47261;52.892;5.738;2022-11-20T00:45:51;0.40;92.40
61392;DHT22;47261;52.892;5.738;2022-11-20T00:48:20;0.50;92.50
61392;DHT22;47261;52.892;5.738;2022-11-20T00:50:46;0.60;92.60
61392;DHT22;47261;52.892;5.738;2022-11-20T00:53:12;0.60;92.50
61392;DHT22;47261;52.892;5.738;2022-11-20T00:55:37;0.60;92.40
61392;DHT22;47261;52.892;5.738;2022-11-20T00:58:03;0.60;92.30
61392;DHT22;47261;52.892;5.738;2022-11-20T01:00:29;0.60;92.20
61392;DHT22;47261;52.892;5.738;2022-11-20T01:02:55;0.60;92.10
61392;DHT22;47261;52.892;5.738;2022-11-20T01:05:21;0.50;91.90
61392;DHT22;47261;52.892;5.738;2022-11-20T01:07:47;0.50;91.90
61392;DHT22;47261;52.892;5.738;2022-11-20T01:10:12;0.50;92.00
61392;DHT22;47261;52.892;5.738;2022-11-20T01:12:38;0.40;91.80
61392;DHT22;47261;52.892;5.738;2022-11-20T01:15:04;0.40;91.80
61392;DHT22;47261;52.892;5.738;2022-11-20T01:17:31;0.30;91.80
61392;DHT22;47261;52.892;5.738;2022-11-20T01:19:57;0.30;91.80
61392;DHT22;47261;52.892;5.738;2022-11-20T01:22:22;0.20;91.60
61392;DHT22;47261;52.892;5.738;2022-11-20T01:24:48;0.20;91.70
61392;DHT22;47261;52.892;5.738;2022-11-20T01:27:14;0.20;91.80
61392;DHT22;47261;52.892;5.738;2022-11-20T01:29:39;0.20;91.90
61392;DHT22;47261;52.892;5.738;2022-11-20T01:32:05;0.20;92.00
61392;DHT22;47261;52.892;5.738;2022-11-20T01:34:31;0.20;92.10
61392;DHT22;47261;52.892;5.738;2022-11-20T01:36:56;0.30;92.00
61392;DHT22;47261;52.892;5.738;2022-11-20T01:39:24;0.30;91.80
61392;DHT22;47261;52.892;5.738;2022-11-20T01:41:51;0.30;91.90
61392;DHT22;47261;52.892;5.738;2022-11-20T01:44:55;0.30;92.00
61392;DHT22;47261;52.892;5.738;2022-11-20T01:47:44;0.20;91.90
61392;DHT22;47261;52.892;5.738;2022-11-20T01:50:13;0.20;91.80
61392;DHT22;47261;52.892;5.738;2022-11-20T01:52:44;0.20;91.80
61392;DHT22;47261;52.892;5.738;2022-11-20T01:55:20;0.10;91.80
61392;DHT22;47261;52.892;5.738;2022-11-20T01:57:48;0.10;91.80
61392;DHT22;47261;52.892;5.738;2022-11-20T02:00:16;0.10;91.90
61392;DHT22;47261;52.892;5.738;2022-11-20T02:02:45;0.10;91.90
61392;DHT22;47261;52.892;5.738;2022-11-20T02:05:27;0.00;91.90
61392;DHT22;47261;52.892;5.738;2022-11-20T02:07:55;0.00;91.90
61392;DHT22;47261;52.892;5.738;2022-11-20T02:10:22;-0.10;91.90
61392;DHT22;47261;52.892;5.738;2022-11-20T02:12:48;-0.10;92.00
61392;DHT22;47261;52.892;5.738;2022-11-20T02:15:33;0.00;92.10
61392;DHT22;47261;52.892;5.738;2022-11-20T02:17:59;0.00;92.20
61392;DHT22;47261;52.892;5.738;2022-11-20T02:20:25;0.10;92.30
61392;DHT22;47261;52.892;5.738;2022-11-20T02:22:56;0.20;92.30
61392;DHT22;47261;52.892;5.738;2022-11-20T02:25:24;0.20;92.20
61392;DHT22;47261;52.892;5.738;2022-11-20T02:27:51;0.20;92.20
61392;DHT22;47261;52.892;5.738;2022-11-20T02:30:17;0.30;92.20
61392;DHT22;47261;52.892;5.738;2022-11-20T02:32:43;0.30;92.10
61392;DHT22;47261;52.892;5.738;2022-11-20T02:37:56;0.30;92.20
61392;DHT22;47261;52.892;5.738;2022-11-20T02:40:23;0.30;92.20
61392;DHT22;47261;52.892;5.738;2022-11-20T02:42:53;0.40;92.20
61392;DHT22;47261;52.892;5.738;2022-11-20T02:45:19;0.40;92.10
61392;DHT22;47261;52.892;5.738;2022-11-20T02:47:45;0.40;92.00
61392;DHT22;47261;52.892;5.738;2022-11-20T02:50:11;0.30;92.00
61392;DHT22;47261;52.892;5.738;2022-11-20T02:52:36;0.20;91.90
61392;DHT22;47261;52.892;5.738;2022-11-20T02:55:02;0.20;91.90
61392;DHT22;47261;52.892;5.738;2022-11-20T02:57:28;0.20;92.00
61392;DHT22;47261;52.892;5.738;2022-11-20T02:59:53;0.10;91.90
61392;DHT22;47261;52.892;5.738;2022-11-20T03:02:19;0.00;91.80
61392;DHT22;47261;52.892;5.738;2022-11-20T03:04:44;0.00;91.90
61392;DHT22;47261;52.892;5.738;2022-11-20T03:07:10;0.00;92.00
61392;DHT22;47261;52.892;5.738;2022-11-20T03:09:36;-0.10;92.10
61392;DHT22;47261;52.892;5.738;2022-11-20T03:12:01;0.00;92.20
61392;DHT22;47261;52.892;5.738;2022-11-20T03:14:27;0.00;92.10
61392;DHT22;47261;52.892;5.738;2022-11-20T03:16:53;0.00;92.10
61392;DHT22;47261;52.892;5.738;2022-11-20T03:19:18;0.00;92.10
61392;DHT22;47261;52.892;5.738;2022-11-20T03:21:44;0.00;92.10
61392;DHT22;47261;52.892;5.738;2022-11-20T03:24:10;0.00;92.20
61392;DHT22;47261;52.892;5.738;2022-11-20T03:26:35;0.10;92.20
61392;DHT22;47261;52.892;5.738;2022-11-20T03:29:03;0.10;92.20
61392;DHT22;47261;52.892;5.738;2022-11-20T03:31:34;0.10;92.10
61392;DHT22;47261;52.892;5.738;2022-11-20T03:34:00;0.00;92.00
61392;DHT22;47261;52.892;5.738;2022-11-20T03:36:27;0.00;92.00
61392;DHT22;47261;52.892;5.738;2022-11-20T03:38:54;0.00;92.10
61392;DHT22;47261;52.892;5.738;2022-11-20T03:41:22;0.00;92.10
61392;DHT22;47261;52.892;5.738;2022-11-20T03:46:14;0.00;92.10
61392;DHT22;47261;52.892;5.738;2022-11-20T03:48:40;0.00;92.20
61392;DHT22;47261;52.892;5.738;2022-11-20T03:51:14;0.00;92.10
61392;DHT22;47261;52.892;5.738;2022-11-20T03:53:41;0.00;92.10
61392;DHT22;47261;52.892;5.738;2022-11-20T03:56:08;-0.10;92.00
61392;DHT22;47261;52.892;5.738;2022-11-20T03:58:38;-0.10;91.90
61392;DHT22;47261;52.892;5.738;2022-11-20T04:01:11;-0.20;91.90
61392;DHT22;47261;52.892;5.738;2022-11-20T04:03:39;-0.30;92.00
61392;DHT22;47261;52.892;5.738;2022-11-20T04:06:07;-0.40;92.00
61392;DHT22;47261;52.892;5.738;2022-11-20T04:08:33;-0.40;91.90
61392;DHT22;47261;52.892;5.738;2022-11-20T04:11:15;-0.50;91.90
61392;DHT22;47261;52.892;5.738;2022-11-20T04:13:41;-0.50;92.00
61392;DHT22;47261;52.892;5.738;2022-11-20T04:16:08;-0.60;91.90
61392;DHT22;47261;52.892;5.738;2022-11-20T04:18:35;-0.60;91.90
61392;DHT22;47261;52.892;5.738;2022-11-20T04:21:01;-0.60;92.00
61392;DHT22;47261;52.892;5.738;2022-11-20T04:23:27;-0.60;92.10
61392;DHT22;47261;52.892;5.738;2022-11-20T04:25:52;-0.60;92.20
61392;DHT22;47261;52.892;5.738;2022-11-20T04:28:18;-0.60;92.20
61392;DHT22;47261;52.892;5.738;2022-11-20T04:30:44;-0.60;92.20
61392;DHT22;47261;52.892;5.738;2022-11-20T04:33:10;-0.60;92.20
61392;DHT22;47261;52.892;5.738;2022-11-20T04:35:36;-0.60;92.10
61392;DHT22;47261;52.892;5.738;2022-11-20T04:38:02;-0.60;92.20
61392;DHT22;47261;52.892;5.738;2022-11-20T04:40:28;-0.60;92.30
61392;DHT22;47261;52.892;5.738;2022-11-20T04:42:54;-0.60;92.30
61392;DHT22;47261;52.892;5.738;2022-11-20T04:45:20;-0.70;92.30
61392;DHT22;47261;52.892;5.738;2022-11-20T04:47:46;-0.70;92.30
61392;DHT22;47261;52.892;5.738;2022-11-20T04:50:11;-0.70;92.30
61392;DHT22;47261;52.892;5.738;2022-11-20T04:52:37;-0.70;92.30
61392;DHT22;47261;52.892;5.738;2022-11-20T04:55:03;-0.70;92.40
61392;DHT22;47261;52.892;5.738;2022-11-20T04:57:28;-0.70;92.40
61392;DHT22;47261;52.892;5.738;2022-11-20T04:59:54;-0.70;92.50
61392;DHT22;47261;52.892;5.738;2022-11-20T05:02:20;-0.70;92.40
61392;DHT22;47261;52.892;5.738;2022-11-20T05:04:45;-0.70;92.30
61392;DHT22;47261;52.892;5.738;2022-11-20T05:07:11;-0.70;92.40
61392;DHT22;47261;52.892;5.738;2022-11-20T05:09:36;-0.70;92.40
61392;DHT22;47261;52.892;5.738;2022-11-20T05:12:02;-0.60;92.50
61392;DHT22;47261;52.892;5.738;2022-11-20T05:14:28;-0.60;92.60
61392;DHT22;47261;52.892;5.738;2022-11-20T05:16:53;-0.60;92.60
61392;DHT22;47261;52.892;5.738;2022-11-20T05:19:19;-0.60;92.70
61392;DHT22;47261;52.892;5.738;2022-11-20T05:21:45;-0.60;93.10
61392;DHT22;47261;52.892;5.738;2022-11-20T05:24:10;-0.50;93.30
61392;DHT22;47261;52.892;5.738;2022-11-20T05:26:36;-0.50;93.40
61392;DHT22;47261;52.892;5.738;2022-11-20T05:29:01;-0.50;93.40
61392;DHT22;47261;52.892;5.738;2022-11-20T05:31:27;-0.40;93.50
61392;DHT22;47261;52.892;5.738;2022-11-20T05:33:53;-0.40;93.50
61392;DHT22;47261;52.892;5.738;2022-11-20T05:36:19;-0.40;93.50
61392;DHT22;47261;52.892;5.738;2022-11-20T05:38:45;-0.40;93.40
61392;DHT22;47261;52.892;5.738;2022-11-20T05:41:16;-0.30;93.40
61392;DHT22;47261;52.892;5.738;2022-11-20T05:43:43;-0.30;93.40
61392;DHT22;47261;52.892;5.738;2022-11-20T05:46:11;-0.30;93.30
61392;DHT22;47261;52.892;5.738;2022-11-20T05:48:38;-0.30;93.20
61392;DHT22;47261;52.892;5.738;2022-11-20T05:51:06;-0.30;93.10
61392;DHT22;47261;52.892;5.738;2022-11-20T05:53:34;-0.30;92.90
61392;DHT22;47261;52.892;5.738;2022-11-20T05:56:01;-0.30;92.90
61392;DHT22;47261;52.892;5.738;2022-11-20T05:58:27;-0.30;93.00
61392;DHT22;47261;52.892;5.738;2022-11-20T06:00:54;-0.20;93.00
61392;DHT22;47261;52.892;5.738;2022-11-20T06:03:20;-0.20;92.90
61392;DHT22;47261;52.892;5.738;2022-11-20T06:05:46;-0.20;92.80
61392;DHT22;47261;52.892;5.738;2022-11-20T06:08:12;-0.20;92.70
61392;DHT22;47261;52.892;5.738;2022-11-20T06:10:37;-0.10;92.70
61392;DHT22;47261;52.892;5.738;2022-11-20T06:13:03;-0.10;92.60
61392;DHT22;47261;52.892;5.738;2022-11-20T06:15:28;-0.10;92.60
61392;DHT22;47261;52.892;5.738;2022-11-20T06:17:55;-0.10;92.60
61392;DHT22;47261;52.892;5.738;2022-11-20T06:20:21;-0.10;92.60
61392;DHT22;47261;52.892;5.738;2022-11-20T06:22:47;-0.10;92.60
61392;DHT22;47261;52.892;5.738;2022-11-20T06:25:13;-0.10;92.50
61392;DHT22;47261;52.892;5.738;2022-11-20T06:27:39;-0.10;92.40
61392;DHT22;47261;52.892;5.738;2022-11-20T06:30:05;-0.20;92.30
61392;DHT22;47261;52.892;5.738;2022-11-20T06:32:30;-0.20;92.30
61392;DHT22;47261;52.892;5.738;2022-11-20T06:34:56;-0.30;92.30
61392;DHT22;47261;52.892;5.738;2022-11-20T06:37:22;-0.40;92.20
61392;DHT22;47261;52.892;5.738;2022-11-20T06:39:47;-0.50;92.20
61392;DHT22;47261;52.892;5.738;2022-11-20T06:42:13;-0.60;92.20
61392;DHT22;47261;52.892;5.738;2022-11-20T06:44:38;-0.60;92.30
61392;DHT22;47261;52.892;5.738;2022-11-20T06:47:04;-0.60;92.30
61392;DHT22;47261;52.892;5.738;2022-11-20T06:49:30;-0.60;92.30
61392;DHT22;47261;52.892;5.738;2022-11-20T06:51:55;-0.60;92.20
61392;DHT22;47261;52.892;5.738;2022-11-20T06:54:21;-0.60;92.10
61392;DHT22;47261;52.892;5.738;2022-11-20T06:56:47;-0.70;92.00
61392;DHT22;47261;52.892;5.738;2022-11-20T06:59:13;-0.70;92.10
61392;DHT22;47261;52.892;5.738;2022-11-20T07:01:39;-0.70;92.20
61392;DHT22;47261;52.892;5.738;2022-11-20T07:04:05;-0.70;92.30
61392;DHT22;47261;52.892;5.738;2022-11-20T07:06:30;-0.60;92.40
61392;DHT22;47261;52.892;5.738;2022-11-20T07:08:56;-0.60;92.40
61392;DHT22;47261;52.892;5.738;2022-11-20T07:11:22;-0.60;92.20
61392;DHT22;47261;52.892;5.738;2022-11-20T07:13:48;-0.60;92.50
61392;DHT22;47261;52.892;5.738;2022-11-20T07:16:14;-0.60;92.20
61392;DHT22;47261;52.892;5.738;2022-11-20T07:18:40;-0.60;92.20
61392;DHT22;47261;52.892;5.738;2022-11-20T07:21:08;-0.60;92.20
61392;DHT22;47261;52.892;5.738;2022-11-20T07:23:34;-0.60;92.40
61392;DHT22;47261;52.892;5.738;2022-11-20T07:26:09;-0.60;92.20
61392;DHT22;47261;52.892;5.738;2022-11-20T07:28:35;-0.60;92.30
61392;DHT22;47261;52.892;5.738;2022-11-20T07:31:01;-0.60;92.40
61392;DHT22;47261;52.892;5.738;2022-11-20T07:33:27;-0.60;92.40
61392;DHT22;47261;52.892;5.738;2022-11-20T07:35:53;-0.50;92.40
61392;DHT22;47261;52.892;5.738;2022-11-20T07:38:18;-0.50;92.40
61392;DHT22;47261;52.892;5.738;2022-11-20T07:40:44;-0.50;92.40
61392;DHT22;47261;52.892;5.738;2022-11-20T07:43:10;-0.50;92.30
61392;DHT22;47261;52.892;5.738;2022-11-20T07:45:35;-0.50;92.30
61392;DHT22;47261;52.892;5.738;2022-11-20T07:48:01;-0.50;92.30
61392;DHT22;47261;52.892;5.738;2022-11-20T07:50:27;-0.40;92.40
61392;DHT22;47261;52.892;5.738;2022-11-20T07:53:00;-0.40;92.40
61392;DHT22;47261;52.892;5.738;2022-11-20T07:55:26;-0.40;92.40
61392;DHT22;47261;52.892;5.738;2022-11-20T07:57:55;-0.40;92.40
61392;DHT22;47261;52.892;5.738;2022-11-20T08:00:22;-0.30;92.50
61392;DHT22;47261;52.892;5.738;2022-11-20T08:02:48;-0.30;92.50
61392;DHT22;47261;52.892;5.738;2022-11-20T08:05:14;-0.30;92.60
61392;DHT22;47261;52.892;5.738;2022-11-20T08:07:41;-0.20;92.70
61392;DHT22;47261;52.892;5.738;2022-11-20T08:10:08;-0.10;93.00
61392;DHT22;47261;52.892;5.738;2022-11-20T08:12:34;0.00;93.20
61392;DHT22;47261;52.892;5.738;2022-11-20T08:15:18;0.20;93.40
61392;DHT22;47261;52.892;5.738;2022-11-20T08:17:44;0.40;93.50
61392;DHT22;47261;52.892;5.738;2022-11-20T08:20:10;0.50;93.50
61392;DHT22;47261;52.892;5.738;2022-11-20T08:22:35;0.70;93.50
61392;DHT22;47261;52.892;5.738;2022-11-20T08:25:01;0.90;93.60
61392;DHT22;47261;52.892;5.738;2022-11-20T08:27:27;1.10;93.70
61392;DHT22;47261;52.892;5.738;2022-11-20T08:29:52;1.30;93.60
61392;DHT22;47261;52.892;5.738;2022-11-20T08:32:18;1.40;93.30
61392;DHT22;47261;52.892;5.738;2022-11-20T08:34:44;1.50;93.10
61392;DHT22;47261;52.892;5.738;2022-11-20T08:37:09;1.50;93.00
61392;DHT22;47261;52.892;5.738;2022-11-20T08:39:35;1.70;93.40
61392;DHT22;47261;52.892;5.738;2022-11-20T08:42:00;1.80;93.10
61392;DHT22;47261;52.892;5.738;2022-11-20T08:44:26;2.00;93.10
61392;DHT22;47261;52.892;5.738;2022-11-20T08:46:51;2.10;93.00
61392;DHT22;47261;52.892;5.738;2022-11-20T08:49:17;2.20;92.80
61392;DHT22;47261;52.892;5.738;2022-11-20T08:51:43;2.30;92.60
61392;DHT22;47261;52.892;5.738;2022-11-20T08:54:09;2.40;92.30
61392;DHT22;47261;52.892;5.738;2022-11-20T08:56:35;2.50;91.90
61392;DHT22;47261;52.892;5.738;2022-11-20T08:59:01;2.50;91.60
61392;DHT22;47261;52.892;5.738;2022-11-20T09:01:27;2.50;91.50
61392;DHT22;47261;52.892;5.738;2022-11-20T09:03:55;2.60;91.50
61392;DHT22;47261;52.892;5.738;2022-11-20T09:06:21;2.60;91.50
61392;DHT22;47261;52.892;5.738;2022-11-20T09:08:47;2.60;91.40
61392;DHT22;47261;52.892;5.738;2022-11-20T09:11:16;2.60;91.40
61392;DHT22;47261;52.892;5.738;2022-11-20T09:13:42;2.60;91.40
61392;DHT22;47261;52.892;5.738;2022-11-20T09:16:08;2.60;91.40
61392;DHT22;47261;52.892;5.738;2022-11-20T09:18:35;2.60;91.40
61392;DHT22;47261;52.892;5.738;2022-11-20T09:21:06;2.60;91.30
61392;DHT22;47261;52.892;5.738;2022-11-20T09:23:34;2.70;91.40
61392;DHT22;47261;52.892;5.738;2022-11-20T09:26:04;2.70;91.40
61392;DHT22;47261;52.892;5.738;2022-11-20T09:28:30;2.70;91.40
61392;DHT22;47261;52.892;5.738;2022-11-20T09:30:56;2.80;91.40
61392;DHT22;47261;52.892;5.738;2022-11-20T09:33:22;2.80;91.60
61392;DHT22;47261;52.892;5.738;2022-11-20T09:35:47;2.90;91.60
61392;DHT22;47261;52.892;5.738;2022-11-20T09:38:13;2.90;91.40
61392;DHT22;47261;52.892;5.738;2022-11-20T09:41:03;2.80;91.40
61392;DHT22;47261;52.892;5.738;2022-11-20T09:50:15;3.10;91.10
61392;DHT22;47261;52.892;5.738;2022-11-20T09:53:01;3.20;91.00
61392;DHT22;47261;52.892;5.738;2022-11-20T09:55:30;3.30;91.00
61392;DHT22;47261;52.892;5.738;2022-11-20T09:57:57;3.40;91.00
61392;DHT22;47261;52.892;5.738;2022-11-20T10:00:24;3.40;90.90
61392;DHT22;47261;52.892;5.738;2022-11-20T10:03:17;3.50;90.90
61392;DHT22;47261;52.892;5.738;2022-11-20T10:05:52;3.60;90.80
61392;DHT22;47261;52.892;5.738;2022-11-20T10:08:40;3.50;90.70
61392;DHT22;47261;52.892;5.738;2022-11-20T10:17:08;3.30;90.80
61392;DHT22;47261;52.892;5.738;2022-11-20T10:20:20;3.30;90.60
61392;DHT22;47261;52.892;5.738;2022-11-20T10:25:34;3.10;90.60
61392;DHT22;47261;52.892;5.738;2022-11-20T10:31:03;2.90;90.80
61392;DHT22;47261;52.892;5.738;2022-11-20T10:33:33;2.80;90.80
61392;DHT22;47261;52.892;5.738;2022-11-20T10:36:19;2.70;90.90
61392;DHT22;47261;52.892;5.738;2022-11-20T10:38:59;2.60;91.00
61392;DHT22;47261;52.892;5.738;2022-11-20T10:41:34;2.50;91.10
61392;DHT22;47261;52.892;5.738;2022-11-20T10:44:04;2.50;91.20
61392;DHT22;47261;52.892;5.738;2022-11-20T10:46:43;2.50;91.30
61392;DHT22;47261;52.892;5.738;2022-11-20T10:49:17;2.60;91.30
61392;DHT22;47261;52.892;5.738;2022-11-20T11:00:09;2.80;91.30
61392;DHT22;47261;52.892;5.738;2022-11-20T11:02:43;2.80;91.20
61392;DHT22;47261;52.892;5.738;2022-11-20T11:07:42;3.00;91.10
61392;DHT22;47261;52.892;5.738;2022-11-20T11:10:18;3.00;91.20
61392;DHT22;47261;52.892;5.738;2022-11-20T11:12:46;3.20;91.20
61392;DHT22;47261;52.892;5.738;2022-11-20T11:15:26;3.30;91.10
61392;DHT22;47261;52.892;5.738;2022-11-20T11:17:52;3.30;91.00
61392;DHT22;47261;52.892;5.738;2022-11-20T11:20:22;3.40;90.90
61392;DHT22;47261;52.892;5.738;2022-11-20T11:22:54;3.50;90.80
61392;DHT22;47261;52.892;5.738;2022-11-20T11:27:47;3.70;90.70
61392;DHT22;47261;52.892;5.738;2022-11-20T11:30:18;3.80;90.50
61392;DHT22;47261;52.892;5.738;2022-11-20T11:32:44;3.90;90.30
61392;DHT22;47261;52.892;5.738;2022-11-20T11:35:25;3.90;90.10
61392;DHT22;47261;52.892;5.738;2022-11-20T11:37:53;3.90;90.00
61392;DHT22;47261;52.892;5.738;2022-11-20T11:40:20;3.80;89.80
61392;DHT22;47261;52.892;5.738;2022-11-20T11:43:02;3.80;89.80
61392;DHT22;47261;52.892;5.738;2022-11-20T11:45:29;3.80;89.70
61392;DHT22;47261;52.892;5.738;2022-11-20T11:48:00;3.80;89.60
61392;DHT22;47261;52.892;5.738;2022-11-20T11:50:29;3.70;89.50
61392;DHT22;47261;52.892;5.738;2022-11-20T11:53:15;3.70;89.40
61392;DHT22;47261;52.892;5.738;2022-11-20T11:56:04;3.80;89.30
61392;DHT22;47261;52.892;5.738;2022-11-20T11:58:44;3.80;89.10
61392;DHT22;47261;52.892;5.738;2022-11-20T12:01:47;3.80;88.90
61392;DHT22;47261;52.892;5.738;2022-11-20T12:04:37;3.80;88.80
61392;DHT22;47261;52.892;5.738;2022-11-20T12:09:54;3.80;88.50
61392;DHT22;47261;52.892;5.738;2022-11-20T12:12:27;3.80;88.40
61392;DHT22;47261;52.892;5.738;2022-11-20T12:14:56;3.80;88.30
61392;DHT22;47261;52.892;5.738;2022-11-20T12:17:22;3.70;88.30
61392;DHT22;47261;52.892;5.738;2022-11-20T12:19:48;3.80;88.40
61392;DHT22;47261;52.892;5.738;2022-11-20T12:53:28;3.80;88.90
61392;DHT22;47261;52.892;5.738;2022-11-20T13:01:50;3.80;89.30
61392;DHT22;47261;52.892;5.738;2022-11-20T13:06:51;3.70;88.60
61392;DHT22;47261;52.892;5.738;2022-11-20T13:09:19;3.70;88.80
61392;DHT22;47261;52.892;5.738;2022-11-20T13:12:05;3.60;89.00
61392;DHT22;47261;52.892;5.738;2022-11-20T13:14:42;3.60;89.20
61392;DHT22;47261;52.892;5.738;2022-11-20T13:17:41;3.60;89.30
61392;DHT22;47261;52.892;5.738;2022-11-20T13:20:18;3.50;89.40
61392;DHT22;47261;52.892;5.738;2022-11-20T13:22:47;3.50;89.50
61392;DHT22;47261;52.892;5.738;2022-11-20T13:25:28;3.40;89.60
61392;DHT22;47261;52.892;5.738;2022-11-20T13:27:55;3.40;89.80
61392;DHT22;47261;52.892;5.738;2022-11-20T13:30:23;3.30;89.90
61392;DHT22;47261;52.892;5.738;2022-11-20T13:33:07;3.30;90.00
61392;DHT22;47261;52.892;5.738;2022-11-20T13:35:41;3.30;90.10
61392;DHT22;47261;52.892;5.738;2022-11-20T13:38:13;3.30;90.10
61392;DHT22;47261;52.892;5.738;2022-11-20T13:43:41;3.30;90.20
61392;DHT22;47261;52.892;5.738;2022-11-20T13:46:09;3.30;90.20
61392;DHT22;47261;52.892;5.738;2022-11-20T13:48:45;3.30;90.20
61392;DHT22;47261;52.892;5.738;2022-11-20T13:54:42;3.30;90.30
61392;DHT22;47261;52.892;5.738;2022-11-20T13:57:40;3.30;90.40
61392;DHT22;47261;52.892;5.738;2022-11-20T14:00:17;3.30;90.40
61392;DHT22;47261;52.892;5.738;2022-11-20T14:02:44;3.20;90.50
61392;DHT22;47261;52.892;5.738;2022-11-20T14:05:22;3.20;90.50
61392;DHT22;47261;52.892;5.738;2022-11-20T14:07:49;3.20;90.50
61392;DHT22;47261;52.892;5.738;2022-11-20T14:10:23;3.20;90.60
61392;DHT22;47261;52.892;5.738;2022-11-20T14:12:49;3.20;90.80
61392;DHT22;47261;52.892;5.738;2022-11-20T14:15:31;3.20;90.60
61392;DHT22;47261;52.892;5.738;2022-11-20T14:17:58;3.20;90.60
61392;DHT22;47261;52.892;5.738;2022-11-20T14:20:26;3.20;90.60
61392;DHT22;47261;52.892;5.738;2022-11-20T14:22:54;3.20;90.60
61392;DHT22;47261;52.892;5.738;2022-11-20T14:25:25;3.20;90.70
61392;DHT22;47261;52.892;5.738;2022-11-20T14:27:59;3.20;90.70
61392;DHT22;47261;52.892;5.738;2022-11-20T14:30:45;3.20;90.80
61392;DHT22;47261;52.892;5.738;2022-11-20T14:33:12;3.20;90.80
61392;DHT22;47261;52.892;5.738;2022-11-20T14:35:47;3.20;90.90
61392;DHT22;47261;52.892;5.738;2022-11-20T14:38:16;3.20;91.00
61392;DHT22;47261;52.892;5.738;2022-11-20T14:40:42;3.20;91.00
61392;DHT22;47261;52.892;5.738;2022-11-20T14:43:26;3.20;91.00
61392;DHT22;47261;52.892;5.738;2022-11-20T14:45:59;3.20;91.00
61392;DHT22;47261;52.892;5.738;2022-11-20T14:48:44;3.20;91.00
61392;DHT22;47261;52.892;5.738;2022-11-20T14:51:12;3.20;91.00
61392;DHT22;47261;52.892;5.738;2022-11-20T14:53:48;3.30;91.00
61392;DHT22;47261;52.892;5.738;2022-11-20T14:56:22;3.30;91.10
61392;DHT22;47261;52.892;5.738;2022-11-20T14:58:55;3.30;91.10
61392;DHT22;47261;52.892;5.738;2022-11-20T15:01:26;3.20;91.20
61392;DHT22;47261;52.892;5.738;2022-11-20T15:04:00;3.20;91.20
61392;DHT22;47261;52.892;5.738;2022-11-20T15:06:26;3.20;91.20
61392;DHT22;47261;52.892;5.738;2022-11-20T15:08:52;3.20;91.30
61392;DHT22;47261;52.892;5.738;2022-11-20T15:11:22;3.20;91.40
61392;DHT22;47261;52.892;5.738;2022-11-20T15:13:49;3.20;91.50
61392;DHT22;47261;52.892;5.738;2022-11-20T15:16:20;3.10;91.50
61392;DHT22;47261;52.892;5.738;2022-11-20T15:18:46;3.10;91.50
61392;DHT22;47261;52.892;5.738;2022-11-20T15:21:15;3.10;91.60
61392;DHT22;47261;52.892;5.738;2022-11-20T15:23:41;3.10;91.60
61392;DHT22;47261;52.892;5.738;2022-11-20T15:26:08;3.10;91.60
61392;DHT22;47261;52.892;5.738;2022-11-20T15:28:39;3.10;91.60
61392;DHT22;47261;52.892;5.738;2022-11-20T15:31:06;3.10;91.60
61392;DHT22;47261;52.892;5.738;2022-11-20T15:33:32;3.20;91.60
61392;DHT22;47261;52.892;5.738;2022-11-20T15:35:58;3.10;91.60
61392;DHT22;47261;52.892;5.738;2022-11-20T15:38:24;3.20;91.60
61392;DHT22;47261;52.892;5.738;2022-11-20T15:40:50;3.20;91.60
61392;DHT22;47261;52.892;5.738;2022-11-20T15:43:15;3.20;91.60
61392;DHT22;47261;52.892;5.738;2022-11-20T15:45:51;3.20;91.60
61392;DHT22;47261;52.892;5.738;2022-11-20T15:48:21;3.20;91.60
61392;DHT22;47261;52.892;5.738;2022-11-20T15:53:16;3.20;91.60
61392;DHT22;47261;52.892;5.738;2022-11-20T15:55:42;3.30;91.70
61392;DHT22;47261;52.892;5.738;2022-11-20T15:58:08;3.30;91.70
61392;DHT22;47261;52.892;5.738;2022-11-20T16:00:34;3.30;91.70
61392;DHT22;47261;52.892;5.738;2022-11-20T16:02:59;3.30;91.70
61392;DHT22;47261;52.892;5.738;2022-11-20T16:05:28;3.30;91.70
61392;DHT22;47261;52.892;5.738;2022-11-20T16:07:54;3.30;91.70
61392;DHT22;47261;52.892;5.738;2022-11-20T16:10:19;3.40;91.70
61392;DHT22;47261;52.892;5.738;2022-11-20T16:12:45;3.40;91.70
61392;DHT22;47261;52.892;5.738;2022-11-20T16:15:29;3.30;91.80
61392;DHT22;47261;52.892;5.738;2022-11-20T16:18:11;3.40;91.80
61392;DHT22;47261;52.892;5.738;2022-11-20T16:20:37;3.40;91.80
61392;DHT22;47261;52.892;5.738;2022-11-20T16:23:03;3.40;91.90
61392;DHT22;47261;52.892;5.738;2022-11-20T16:25:29;3.40;92.10
61392;DHT22;47261;52.892;5.738;2022-11-20T16:27:54;3.40;91.90
61392;DHT22;47261;52.892;5.738;2022-11-20T16:30:20;3.40;92.00
61392;DHT22;47261;52.892;5.738;2022-11-20T16:32:45;3.40;92.00
61392;DHT22;47261;52.892;5.738;2022-11-20T16:35:11;3.30;92.00
61392;DHT22;47261;52.892;5.738;2022-11-20T16:37:36;3.30;92.10
61392;DHT22;47261;52.892;5.738;2022-11-20T16:40:03;3.30;92.10
61392;DHT22;47261;52.892;5.738;2022-11-20T16:42:33;3.30;92.20
61392;DHT22;47261;52.892;5.738;2022-11-20T16:44:59;3.30;92.20
61392;DHT22;47261;52.892;5.738;2022-11-20T16:47:24;3.40;92.20
61392;DHT22;47261;52.892;5.738;2022-11-20T16:49:50;3.30;92.10
61392;DHT22;47261;52.892;5.738;2022-11-20T16:52:16;3.30;92.10
61392;DHT22;47261;52.892;5.738;2022-11-20T16:54:41;3.30;92.10
61392;DHT22;47261;52.892;5.738;2022-11-20T16:57:07;3.30;92.20
61392;DHT22;47261;52.892;5.738;2022-11-20T16:59:32;3.30;92.10
61392;DHT22;47261;52.892;5.738;2022-11-20T17:01:58;3.30;92.20
61392;DHT22;47261;52.892;5.738;2022-11-20T17:04:24;3.30;92.20
61392;DHT22;47261;52.892;5.738;2022-11-20T17:06:49;3.30;92.20
61392;DHT22;47261;52.892;5.738;2022-11-20T17:09:15;3.30;92.20
61392;DHT22;47261;52.892;5.738;2022-11-20T17:11:41;3.30;92.20
61392;DHT22;47261;52.892;5.738;2022-11-20T17:14:08;3.30;92.30
61392;DHT22;47261;52.892;5.738;2022-11-20T17:16:35;3.30;92.40
61392;DHT22;47261;52.892;5.738;2022-11-20T17:19:01;3.30;92.80
61392;DHT22;47261;52.892;5.738;2022-11-20T17:21:28;3.30;92.60